Time;durP1;ratioP1;P1;durP2;ratioP2;P2;SDS_P1;SDS_P2;PMS_P1;PMS_P2;Temp;Humidity;BMP_temperature;BMP_pressure;BME280_temperature;BME280_humidity;BME280_pressure;Samples;Min_cycle;Max_cycle;Signal;HPM_P1;HPM_P2
2024/01/09 00:02:22;;;;;;;62.20;24.60;;;-14.20;1.00;;;;;;8248038;28;20195;-79
2024/01/09 00:06:23;;;;;;;74.53;26.20;;;-14.20;1.00;;;;;;8234406;28;20271;-79
2024/01/09 00:10:24;;;;;;;73.63;24.83;;;-14.30;1.00;;;;;;8244901;28;20773;-79
2024/01/09 00:14:24;;;;;;;53.90;22.97;;;-14.30;1.00;;;;;;8247429;28;20189;-80
2024/01/09 00:18:25;;;;;;;59.07;21.90;;;-14.20;1.00;;;;;;8233491;28;20306;-79
2024/01/09 00:22:26;;;;;;;40.73;18.10;;;-14.30;1.00;;;;;;8248901;28;20290;-79
2024/01/09 00:26:27;;;;;;;48.87;18.33;;;-14.30;1.00;;;;;;8231222;28;20184;-79
2024/01/09 00:30:27;;;;;;;49.23;17.90;;;-14.30;1.00;;;;;;8244703;28;20219;-77
2024/01/09 00:34:28;;;;;;;52.43;19.27;;;-14.30;1.00;;;;;;8250665;28;20188;-79
2024/01/09 00:38:29;;;;;;;49.80;18.33;;;-14.40;1.00;;;;;;8226642;28;20187;-78
2024/01/09 00:42:30;;;;;;;30.90;15.83;;;-14.40;1.00;;;;;;8243716;28;20293;-79
2024/01/09 00:46:31;;;;;;;29.80;14.97;;;-14.40;1.00;;;;;;8245224;28;20199;-79
2024/01/09 00:50:31;;;;;;;32.07;14.90;;;-14.50;1.00;;;;;;8229927;28;20222;-78
2024/01/09 00:54:32;;;;;;;31.60;13.40;;;-14.50;1.00;;;;;;8227988;28;20187;-78
2024/01/09 00:58:33;;;;;;;31.63;13.63;;;-14.50;1.00;;;;;;8242185;28;20254;-81
2024/01/09 01:02:34;;;;;;;30.17;12.30;;;-14.50;1.00;;;;;;8262045;28;20221;-80
2024/01/09 01:06:41;;;;;;;26.60;12.65;;;-14.50;1.00;;;;;;8299619;23;20220;-65
2024/01/09 01:10:42;;;;;;;23.10;11.63;;;-14.60;1.00;;;;;;8226773;28;20466;-65
2024/01/09 01:14:43;;;;;;;29.60;12.57;;;-14.70;1.00;;;;;;8230278;28;20196;-66
2024/01/09 01:18:43;;;;;;;25.63;12.77;;;-14.70;1.00;;;;;;8233694;28;21632;-66
2024/01/09 01:22:44;;;;;;;24.93;11.63;;;-14.60;1.00;;;;;;8232290;28;20204;-65
2024/01/09 01:26:45;;;;;;;31.70;12.17;;;-14.60;1.00;;;;;;8234063;28;21544;-66
2024/01/09 01:30:45;;;;;;;33.23;11.77;;;-14.70;1.00;;;;;;8237561;28;20485;-66
2024/01/09 01:34:46;;;;;;;26.83;12.63;;;-14.70;1.00;;;;;;8239467;28;21286;-66
2024/01/09 01:38:47;;;;;;;30.73;13.40;;;-14.70;1.00;;;;;;8239016;28;20278;-66
2024/01/09 01:42:48;;;;;;;24.70;12.57;;;-14.70;1.00;;;;;;8241790;28;20191;-65
2024/01/09 01:46:49;;;;;;;27.87;12.20;;;-14.70;1.00;;;;;;8238686;28;20186;-65
2024/01/09 01:50:50;;;;;;;24.00;11.77;;;-14.70;1.00;;;;;;8233016;28;20214;-66
2024/01/09 01:54:51;;;;;;;33.33;12.77;;;-14.70;1.00;;;;;;8232939;28;20194;-66
2024/01/09 01:58:51;;;;;;;30.67;12.63;;;-14.80;1.00;;;;;;8238471;28;20236;-67
2024/01/09 02:02:53;;;;;;;24.90;12.03;;;-14.80;1.00;;;;;;8232746;28;20198;-64
2024/01/09 02:06:54;;;;;;;26.30;12.70;;;-14.80;1.00;;;;;;8235180;28;20306;-65
2024/01/09 02:10:55;;;;;;;25.37;11.67;;;-14.80;1.00;;;;;;8249171;28;20220;-66
2024/01/09 02:14:56;;;;;;;22.53;12.37;;;-14.90;1.00;;;;;;8249017;28;20192;-65
2024/01/09 02:18:56;;;;;;;32.30;14.90;;;-14.80;1.00;;;;;;8238816;28;20243;-65
2024/01/09 02:22:57;;;;;;;21.60;11.70;;;-14.90;1.00;;;;;;8234974;28;20334;-65
2024/01/09 02:27:29;;;;;;;28.70;13.07;;;-14.80;1.00;;;;;;8252572;28;20206;-65
2024/01/09 02:31:30;;;;;;;31.67;12.77;;;-14.80;1.00;;;;;;8235203;28;20303;-65
2024/01/09 02:35:32;;;;;;;36.03;15.13;;;-14.70;1.00;;;;;;8241289;28;20220;-65
2024/01/09 02:39:32;;;;;;;49.77;23.47;;;-14.70;1.00;;;;;;8230133;28;20180;-66
2024/01/09 02:43:33;;;;;;;49.37;20.60;;;-14.60;1.00;;;;;;8237915;28;20184;-66
2024/01/09 02:47:34;;;;;;;46.27;18.17;;;-14.70;1.00;;;;;;8231868;28;20196;-65
2024/01/09 02:51:34;;;;;;;46.27;19.37;;;-14.70;1.00;;;;;;8230145;28;20507;-65
2024/01/09 02:55:35;;;;;;;49.03;19.43;;;-14.70;1.00;;;;;;8246901;28;20245;-65
2024/01/09 02:59:36;;;;;;;49.57;17.83;;;-14.60;1.00;;;;;;8235157;28;20323;-65
2024/01/09 03:03:37;;;;;;;32.27;15.67;;;-14.50;1.00;;;;;;8247325;28;20202;-65
2024/01/09 03:07:37;;;;;;;43.07;16.20;;;-14.60;1.00;;;;;;8244156;28;20219;-66
2024/01/09 03:11:38;;;;;;;36.17;16.70;;;-14.60;1.00;;;;;;8236919;28;20211;-65
2024/01/09 03:15:39;;;;;;;49.23;17.23;;;-14.60;1.00;;;;;;8231500;28;20184;-66
2024/01/09 03:19:42;;;;;;;39.83;17.27;;;-14.50;1.00;;;;;;8231471;28;20191;-65
2024/01/09 03:23:43;;;;;;;50.07;20.80;;;-14.40;1.00;;;;;;8231005;28;20341;-65
2024/01/09 03:27:44;;;;;;;58.63;25.70;;;-14.40;1.00;;;;;;8237726;28;20187;-65
2024/01/09 03:31:45;;;;;;;60.70;29.47;;;-14.40;1.00;;;;;;8244304;28;20219;-65
2024/01/09 03:35:45;;;;;;;56.13;26.90;;;-14.40;1.00;;;;;;8231021;28;20197;-65
2024/01/09 03:39:46;;;;;;;49.63;19.63;;;-14.50;1.00;;;;;;8231651;28;20205;-65
2024/01/09 03:43:47;;;;;;;44.80;18.07;;;-14.60;1.00;;;;;;8229070;28;20272;-65
2024/01/09 03:47:48;;;;;;;36.50;15.67;;;-14.70;1.00;;;;;;8227973;28;20203;-65
2024/01/09 03:51:49;;;;;;;44.73;18.00;;;-14.80;1.00;;;;;;8228216;28;20291;-64
2024/01/09 03:55:49;;;;;;;35.87;17.43;;;-14.80;1.00;;;;;;8241948;28;20328;-66
2024/01/09 03:59:50;;;;;;;37.77;16.47;;;-14.90;1.00;;;;;;8244924;28;20286;-64
2024/01/09 04:03:50;;;;;;;44.63;18.30;;;-14.90;1.00;;;;;;8246320;28;20672;-65
2024/01/09 04:07:51;;;;;;;34.80;15.80;;;-14.90;1.00;;;;;;8224430;28;20207;-66
2024/01/09 04:11:52;;;;;;;40.73;16.43;;;-15.00;2.90;;;;;;8220721;28;20663;-64
2024/01/09 04:15:53;;;;;;;31.47;14.10;;;-15.00;1.00;;;;;;8220489;28;20285;-65
2024/01/09 04:19:54;;;;;;;36.90;15.83;;;-15.00;1.00;;;;;;8221441;28;20201;-65
2024/01/09 04:23:55;;;;;;;38.53;14.40;;;-15.10;1.00;;;;;;8214439;28;20864;-65
2024/01/09 04:27:55;;;;;;;29.73;13.93;;;-15.10;1.00;;;;;;8224070;28;20202;-64
2024/01/09 04:31:56;;;;;;;39.30;14.73;;;-15.10;1.00;;;;;;8237414;28;20384;-65
2024/01/09 04:35:57;;;;;;;26.03;13.83;;;-15.10;1.00;;;;;;8234917;28;20222;-65
2024/01/09 04:39:58;;;;;;;39.77;14.97;;;-15.10;1.00;;;;;;8242931;28;20210;-64
2024/01/09 04:43:58;;;;;;;35.07;15.67;;;-15.20;1.00;;;;;;8240230;28;20202;-65
2024/01/09 04:47:59;;;;;;;29.30;12.60;;;-15.20;1.00;;;;;;8229712;28;20205;-65
2024/01/09 04:52:00;;;;;;;29.40;12.93;;;-15.20;1.00;;;;;;8220950;28;20286;-65
2024/01/09 04:56:01;;;;;;;34.97;13.77;;;-15.20;1.00;;;;;;8228459;28;20243;-66
2024/01/09 05:00:02;;;;;;;34.63;13.87;;;-15.20;1.00;;;;;;8238432;28;20235;-65
2024/01/09 05:04:03;;;;;;;34.53;13.60;;;-15.20;1.00;;;;;;8228157;28;20192;-65
2024/01/09 05:08:04;;;;;;;27.40;13.03;;;-15.20;1.00;;;;;;8229988;28;20203;-65
2024/01/09 05:12:05;;;;;;;36.53;13.73;;;-15.20;1.00;;;;;;8230225;28;20210;-65
2024/01/09 05:16:07;;;;;;;31.93;13.80;;;-15.20;1.00;;;;;;8235367;28;20273;-64
2024/01/09 05:20:08;;;;;;;40.23;15.60;;;-15.20;1.00;;;;;;8231315;28;20218;-64
2024/01/09 05:24:09;;;;;;;31.90;13.47;;;-15.10;1.00;;;;;;8231432;28;20198;-64
2024/01/09 05:28:09;;;;;;;36.70;13.63;;;-15.00;1.00;;;;;;8233114;28;20196;-64
2024/01/09 05:32:10;;;;;;;45.37;16.73;;;-14.70;1.00;;;;;;8238383;28;20198;-64
2024/01/09 05:36:11;;;;;;;84.57;34.30;;;-14.40;1.00;;;;;;8230668;28;20196;-65
2024/01/09 05:40:12;;;;;;;103.13;40.10;;;-14.10;1.00;;;;;;8230761;28;20190;-65
2024/01/09 05:44:13;;;;;;;115.03;40.23;;;-13.80;1.00;;;;;;8234754;28;20184;-67
2024/01/09 05:48:13;;;;;;;115.67;42.63;;;-13.60;1.00;;;;;;8228355;28;20184;-65
2024/01/09 05:52:14;;;;;;;93.83;35.23;;;-13.40;1.00;;;;;;8248412;28;20192;-65
2024/01/09 05:56:15;;;;;;;71.40;29.27;;;-13.10;1.00;;;;;;8247044;28;20287;-65
2024/01/09 06:00:16;;;;;;;57.57;25.70;;;-12.90;1.00;;;;;;8231507;28;20458;-65
2024/01/09 06:04:17;;;;;;;86.70;37.20;;;-12.70;1.00;;;;;;8250898;28;20219;-65
2024/01/09 06:08:17;;;;;;;97.97;39.20;;;-12.60;1.00;;;;;;8249589;28;20203;-65
2024/01/09 06:12:18;;;;;;;74.70;32.43;;;-12.50;1.00;;;;;;8242442;28;20282;-65
2024/01/09 06:16:19;;;;;;;85.73;35.03;;;-12.40;1.80;;;;;;8246658;28;20199;-66
2024/01/09 06:20:20;;;;;;;102.43;42.70;;;-12.30;2.10;;;;;;8248462;28;20274;-65
2024/01/09 06:24:21;;;;;;;88.93;36.20;;;-12.20;3.40;;;;;;8246346;28;20410;-65
2024/01/09 06:28:22;;;;;;;72.33;29.30;;;-12.10;3.90;;;;;;8232573;28;20208;-66
2024/01/09 06:32:22;;;;;;;66.10;24.70;;;-12.00;4.40;;;;;;8233701;28;20192;-65
2024/01/09 06:36:23;;;;;;;64.63;25.53;;;-12.00;5.40;;;;;;8233279;28;20322;-65
2024/01/09 06:40:24;;;;;;;69.97;26.57;;;-11.90;6.60;;;;;;8234317;28;20219;-65
2024/01/09 06:44:25;;;;;;;57.47;24.47;;;-11.90;8.60;;;;;;8232090;28;20441;-65
2024/01/09 06:48:25;;;;;;;74.93;32.03;;;-11.80;10.90;;;;;;8235344;28;20196;-65
2024/01/09 06:52:26;;;;;;;60.10;24.37;;;-11.70;12.00;;;;;;8225926;28;20189;-65
2024/01/09 06:56:27;;;;;;;58.40;26.80;;;-11.50;10.00;;;;;;8221465;28;20193;-64
2024/01/09 07:00:27;;;;;;;64.87;29.83;;;-11.50;7.20;;;;;;8224797;28;20216;-65
2024/01/09 07:04:28;;;;;;;69.13;27.57;;;-11.40;6.60;;;;;;8225670;28;20201;-64
2024/01/09 07:08:29;;;;;;;64.37;27.43;;;-11.40;2.80;;;;;;8221983;28;20204;-65
2024/01/09 07:12:30;;;;;;;63.27;26.63;;;-11.40;2.10;;;;;;8218334;28;20306;-65
2024/01/09 07:16:30;;;;;;;80.53;31.17;;;-11.40;6.20;;;;;;8218177;28;20188;-66
2024/01/09 07:20:31;;;;;;;87.43;35.73;;;-11.50;9.80;;;;;;8210010;28;20198;-66
2024/01/09 07:24:32;;;;;;;84.10;31.60;;;-11.50;17.20;;;;;;8220087;28;20196;-67
2024/01/09 07:28:32;;;;;;;89.57;38.17;;;-11.60;20.30;;;;;;8236506;28;20246;-65
2024/01/09 07:32:34;;;;;;;66.10;25.47;;;-11.60;21.10;;;;;;8211501;28;20188;-65
2024/01/09 07:36:35;;;;;;;60.43;28.93;;;-11.70;27.50;;;;;;8205513;28;20222;-65
2024/01/09 07:40:36;;;;;;;73.30;30.70;;;-11.60;52.10;;;;;;8220890;28;21624;-66
2024/01/09 07:44:37;;;;;;;58.80;23.80;;;-11.60;42.10;;;;;;8215283;28;20628;-66
2024/01/09 07:48:38;;;;;;;68.50;28.57;;;-11.60;39.10;;;;;;8236388;28;20356;-66
2024/01/09 07:52:38;;;;;;;61.33;28.13;;;-11.60;49.80;;;;;;8246427;28;20241;-66
2024/01/09 07:56:39;;;;;;;59.10;26.43;;;-11.60;50.10;;;;;;8224094;28;20180;-66
2024/01/09 08:00:40;;;;;;;72.17;27.13;;;-11.50;54.30;;;;;;8243736;28;20208;-67
2024/01/09 08:04:41;;;;;;;55.77;23.77;;;-11.40;89.40;;;;;;8229075;28;20192;-66
2024/01/09 08:08:45;;;;;;;61.27;29.07;;;-11.30;70.80;;;;;;8220019;28;20254;-65
2024/01/09 08:12:48;;;;;;;58.27;26.37;;;-11.20;60.30;;;;;;8229679;28;20370;-66
2024/01/09 08:16:49;;;;;;;65.73;28.57;;;-11.10;52.50;;;;;;8242782;28;20222;-65
2024/01/09 08:20:50;;;;;;;71.47;29.20;;;-11.00;48.50;;;;;;8249371;28;20214;-65
2024/01/09 08:24:50;;;;;;;55.50;27.37;;;-10.90;43.20;;;;;;8231792;28;20187;-65
2024/01/09 08:28:51;;;;;;;67.73;27.43;;;-10.80;40.00;;;;;;8216817;28;20226;-64
2024/01/09 08:32:52;;;;;;;68.47;29.60;;;-10.70;30.10;;;;;;8236965;28;20364;-65
2024/01/09 08:36:52;;;;;;;69.07;28.20;;;-10.50;28.30;;;;;;8223088;28;20216;-65
2024/01/09 08:40:55;;;;;;;57.37;26.90;;;-10.50;22.70;;;;;;8223941;28;20529;-65
2024/01/09 08:44:56;;;;;;;65.47;28.13;;;-10.40;20.90;;;;;;8224230;28;20189;-65
2024/01/09 08:48:57;;;;;;;72.13;29.57;;;-10.30;20.20;;;;;;8221299;28;20221;-66
2024/01/09 08:52:57;;;;;;;58.33;27.07;;;-10.20;22.10;;;;;;8227244;28;20199;-65
2024/01/09 08:56:58;;;;;;;66.67;26.50;;;-10.00;16.50;;;;;;8233258;28;20249;-65
2024/01/09 09:00:59;;;;;;;59.63;26.67;;;-9.90;15.50;;;;;;8244624;28;20232;-63
2024/01/09 09:05:00;;;;;;;59.23;25.53;;;-9.80;15.10;;;;;;8245161;28;20199;-65
2024/01/09 09:09:01;;;;;;;52.43;23.70;;;-9.60;15.90;;;;;;8230611;28;20372;-66
2024/01/09 09:13:03;;;;;;;55.83;25.37;;;-9.50;8.50;;;;;;8232733;28;20201;-66
2024/01/09 09:17:04;;;;;;;58.10;25.40;;;-9.30;7.90;;;;;;8222590;28;20193;-66
2024/01/09 09:21:05;;;;;;;48.70;24.43;;;-9.10;3.50;;;;;;8228672;28;20199;-66
2024/01/09 09:25:07;;;;;;;60.60;24.77;;;-9.00;1.00;;;;;;8240604;28;20191;-66
2024/01/09 09:29:10;;;;;;;64.90;28.13;;;-8.90;1.00;;;;;;8223402;28;20247;-67
2024/01/09 09:33:10;;;;;;;59.70;27.13;;;-8.80;1.00;;;;;;8242328;28;20227;-66
2024/01/09 09:37:12;;;;;;;74.47;36.00;;;-8.60;1.00;;;;;;8250573;28;20223;-67
2024/01/09 09:41:17;;;;;;;66.40;28.30;;;-8.50;1.00;;;;;;8232550;28;20188;-65
2024/01/09 09:45:19;;;;;;;56.37;24.83;;;-8.40;1.00;;;;;;8228543;28;20476;-67
2024/01/09 09:49:24;;;;;;;49.90;23.20;;;-8.30;1.00;;;;;;8235165;28;20358;-67
2024/01/09 09:53:28;;;;;;;74.63;31.40;;;-8.20;1.00;;;;;;8241829;28;20180;-67
2024/01/09 09:57:29;;;;;;;121.17;43.23;;;-8.10;1.00;;;;;;8261391;28;20188;-67
2024/01/09 10:01:30;;;;;;;184.87;51.60;;;-8.00;1.00;;;;;;8241399;28;20203;-67
2024/01/09 10:05:35;;;;;;;86.17;32.77;;;-8.00;1.00;;;;;;8256346;28;20442;-66
2024/01/09 10:09:39;;;;;;;122.50;41.47;;;-8.00;1.00;;;;;;8236752;28;20218;-67
2024/01/09 10:13:41;;;;;;;104.07;36.83;;;-7.90;1.00;;;;;;8236934;28;20192;-66
2024/01/09 10:17:43;;;;;;;118.63;40.97;;;-7.90;1.00;;;;;;8254764;28;20188;-66
2024/01/09 10:21:44;;;;;;;58.93;30.60;;;-7.90;1.00;;;;;;8242405;28;20180;-66
2024/01/09 10:25:45;;;;;;;71.60;29.60;;;-7.90;1.00;;;;;;8239393;28;20196;-65
2024/01/09 10:29:46;;;;;;;60.30;26.07;;;-7.80;1.00;;;;;;8241250;28;20243;-68
2024/01/09 10:33:47;;;;;;;105.20;35.57;;;-7.70;1.00;;;;;;8240918;28;20243;-67
2024/01/09 10:37:53;;;;;;;60.87;26.80;;;-7.60;1.00;;;;;;8241861;28;20172;-68
2024/01/09 10:41:53;;;;;;;71.67;29.23;;;-7.50;1.00;;;;;;8243827;28;20195;-67
2024/01/09 10:45:54;;;;;;;83.63;32.83;;;-7.40;1.00;;;;;;8240152;28;20291;-68
2024/01/09 10:49:55;;;;;;;64.77;24.70;;;-7.30;1.00;;;;;;8236232;28;20211;-66
2024/01/09 10:53:57;;;;;;;59.40;24.97;;;-7.20;1.00;;;;;;8239944;28;20916;-67
2024/01/09 10:57:58;;;;;;;41.93;19.73;;;-7.10;1.00;;;;;;8238067;28;20192;-68
2024/01/09 11:01:59;;;;;;;56.23;26.30;;;-7.10;1.00;;;;;;8238565;28;20196;-66
2024/01/09 11:06:07;;;;;;;58.03;27.50;;;-6.90;1.00;;;;;;8236208;28;20203;-68
2024/01/09 11:10:14;;;;;;;54.73;25.03;;;-6.80;1.00;;;;;;8241586;28;20213;-67
2024/01/09 11:14:17;;;;;;;47.13;20.67;;;-6.70;1.00;;;;;;8259138;28;20190;-67
2024/01/09 11:18:18;;;;;;;44.20;22.17;;;-6.60;1.00;;;;;;8249200;28;20256;-68
2024/01/09 11:22:22;;;;;;;60.50;26.97;;;-6.60;1.00;;;;;;8245460;28;20192;-67
2024/01/09 11:26:24;;;;;;;58.33;25.87;;;-6.60;1.00;;;;;;8237373;28;20192;-67
2024/01/09 11:30:30;;;;;;;36.23;19.00;;;-6.60;1.00;;;;;;8238034;28;20482;-67
2024/01/09 11:34:30;;;;;;;35.10;18.33;;;-6.50;1.00;;;;;;8257803;28;20228;-68
2024/01/09 11:38:37;;;;;;;47.17;23.57;;;-6.40;1.00;;;;;;8255351;28;20184;-68
2024/01/09 11:42:39;;;;;;;39.13;21.57;;;-6.50;1.00;;;;;;8257928;28;20496;-68
2024/01/09 11:46:39;;;;;;;39.53;21.53;;;-6.50;1.00;;;;;;8240576;28;20186;-67
2024/01/09 11:50:41;;;;;;;64.87;25.57;;;-6.50;1.00;;;;;;8254683;28;20212;-68
2024/01/09 11:54:42;;;;;;;36.13;18.17;;;-6.40;1.00;;;;;;8244123;28;20181;-67
2024/01/09 11:58:44;;;;;;;43.03;21.13;;;-6.20;1.00;;;;;;8243855;28;20213;-64
2024/01/09 12:02:45;;;;;;;39.00;18.70;;;-6.10;1.00;;;;;;8237730;28;20186;-67
2024/01/09 12:06:47;;;;;;;43.47;20.23;;;-6.00;1.00;;;;;;8242061;28;20187;-67
2024/01/09 12:10:48;;;;;;;45.43;21.57;;;-6.00;1.00;;;;;;8240677;28;20214;-66
2024/01/09 12:14:53;;;;;;;45.83;19.90;;;-6.00;1.00;;;;;;8243996;28;20182;-67
2024/01/09 12:18:56;;;;;;;38.90;17.90;;;-5.90;1.00;;;;;;8238806;28;20184;-66
2024/01/09 12:22:57;;;;;;;52.67;22.47;;;-5.90;1.00;;;;;;8245173;28;20189;-67
2024/01/09 12:26:59;;;;;;;40.20;19.27;;;-5.80;1.00;;;;;;8244087;28;20193;-66
2024/01/09 12:31:03;;;;;;;38.10;17.67;;;-5.80;1.00;;;;;;8254765;28;20303;-65
2024/01/09 12:35:04;;;;;;;40.03;16.20;;;-5.70;1.00;;;;;;8244322;28;20184;-67
2024/01/09 12:39:08;;;;;;;35.20;15.70;;;-5.70;1.00;;;;;;8243697;28;20197;-67
2024/01/09 12:43:10;;;;;;;44.47;19.93;;;-5.80;1.00;;;;;;8247258;28;20191;-66
2024/01/09 12:47:14;;;;;;;44.93;21.37;;;-5.80;1.00;;;;;;8243779;28;20492;-68
2024/01/09 12:51:15;;;;;;;43.17;17.77;;;-5.70;1.00;;;;;;8259837;28;20233;-66
2024/01/09 12:55:18;;;;;;;34.03;14.20;;;-5.60;1.00;;;;;;8240634;28;20270;-67
2024/01/09 12:59:22;;;;;;;40.10;17.77;;;-5.60;1.00;;;;;;8260134;28;20211;-67
2024/01/09 13:03:24;;;;;;;38.20;18.67;;;-5.60;1.00;;;;;;8256367;28;20211;-67
2024/01/09 13:07:25;;;;;;;36.60;18.37;;;-5.60;1.00;;;;;;8245502;28;20197;-68
2024/01/09 13:11:25;;;;;;;31.20;16.03;;;-5.60;1.00;;;;;;8242359;28;20213;-68
2024/01/09 13:15:26;;;;;;;35.63;16.10;;;-5.60;1.00;;;;;;8244431;28;20266;-68
2024/01/09 13:19:27;;;;;;;42.23;19.33;;;-5.60;1.00;;;;;;8258004;28;20636;-67
2024/01/09 13:23:28;;;;;;;52.13;24.63;;;-5.60;1.00;;;;;;8241394;28;20242;-67
2024/01/09 13:27:28;;;;;;;57.83;25.83;;;-5.50;1.00;;;;;;8242531;28;20279;-68
2024/01/09 13:31:30;;;;;;;49.87;25.17;;;-5.60;1.00;;;;;;8241983;28;20285;-68
2024/01/09 13:35:33;;;;;;;50.97;22.67;;;-5.60;1.00;;;;;;8243101;28;20181;-68
2024/01/09 13:39:34;;;;;;;62.57;25.33;;;-5.70;1.00;;;;;;8261508;28;20275;-67
2024/01/09 13:43:35;;;;;;;58.47;26.97;;;-5.80;1.00;;;;;;8261264;28;20289;-67
2024/01/09 13:47:36;;;;;;;61.47;26.67;;;-5.80;1.00;;;;;;8244215;28;20196;-68
2024/01/09 13:51:37;;;;;;;45.37;22.33;;;-5.90;1.00;;;;;;8262926;28;20220;-67
2024/01/09 13:55:38;;;;;;;51.27;24.97;;;-6.00;1.00;;;;;;8264113;28;20256;-67
2024/01/09 13:59:40;;;;;;;65.40;25.53;;;-6.00;1.00;;;;;;8258403;28;20248;-67
2024/01/09 14:03:41;;;;;;;52.30;24.30;;;-6.10;1.00;;;;;;8245345;28;20187;-68
2024/01/09 14:07:43;;;;;;;52.07;25.27;;;-6.20;1.00;;;;;;8260221;28;20192;-67
2024/01/09 14:11:43;;;;;;;52.70;24.60;;;-6.30;1.00;;;;;;8240954;28;20212;-67
2024/01/09 14:15:44;;;;;;;46.73;23.97;;;-6.30;1.00;;;;;;8246396;28;20180;-66
2024/01/09 14:19:45;;;;;;;56.17;25.27;;;-6.40;1.00;;;;;;8242689;28;20185;-66
2024/01/09 14:23:47;;;;;;;58.77;28.40;;;-6.40;1.00;;;;;;8243469;28;20261;-66
2024/01/09 14:27:48;;;;;;;59.70;27.70;;;-6.50;1.00;;;;;;8243197;28;20199;-67
2024/01/09 14:31:49;;;;;;;81.63;35.17;;;-6.60;1.00;;;;;;8243938;28;20212;-67
2024/01/09 14:35:49;;;;;;;103.63;45.40;;;-6.60;1.00;;;;;;8250997;28;20180;-65
2024/01/09 14:39:52;;;;;;;90.63;40.57;;;-6.80;1.00;;;;;;8240223;28;20196;-66
2024/01/09 14:43:53;;;;;;;73.80;38.00;;;-6.90;1.00;;;;;;8240470;28;20192;-65
2024/01/09 14:47:54;;;;;;;81.53;40.70;;;-7.00;1.00;;;;;;8238496;28;20179;-67
2024/01/09 14:51:54;;;;;;;64.70;30.80;;;-7.00;1.00;;;;;;8233822;28;20218;-67
2024/01/09 14:55:55;;;;;;;76.00;31.90;;;-7.10;1.00;;;;;;8235649;28;20278;-67
2024/01/09 14:59:56;;;;;;;71.23;31.73;;;-7.20;1.00;;;;;;8235069;28;20237;-67
2024/01/09 15:03:57;;;;;;;126.83;43.13;;;-7.30;1.00;;;;;;8249195;28;20191;-65
2024/01/09 15:07:57;;;;;;;86.57;38.53;;;-7.40;1.00;;;;;;8229539;28;20297;-67
2024/01/09 15:11:58;;;;;;;66.83;31.20;;;-7.60;1.00;;;;;;8229745;28;20211;-67
2024/01/09 15:15:59;;;;;;;78.20;36.37;;;-7.80;1.00;;;;;;8228153;28;20266;-67
2024/01/09 15:20:00;;;;;;;141.67;62.77;;;-8.00;1.00;;;;;;8229380;28;20253;-68
2024/01/09 15:24:01;;;;;;;129.70;50.23;;;-8.10;1.00;;;;;;8244436;28;20212;-66
2024/01/09 15:28:01;;;;;;;127.57;48.73;;;-8.20;1.00;;;;;;8223250;28;20487;-66
2024/01/09 15:32:02;;;;;;;82.40;33.77;;;-8.30;1.00;;;;;;8250532;28;20226;-67
2024/01/09 15:36:04;;;;;;;56.47;22.97;;;-8.50;1.00;;;;;;8232549;28;20183;-66
2024/01/09 15:40:11;;;;;;;49.70;25.50;;;-8.70;1.00;;;;;;8234314;28;20214;-66
2024/01/09 15:44:12;;;;;;;62.23;25.40;;;-8.90;1.00;;;;;;8234573;28;20499;-65
2024/01/09 15:48:13;;;;;;;47.00;21.03;;;-9.00;1.00;;;;;;8233472;28;20574;-65
2024/01/09 15:52:14;;;;;;;119.20;47.00;;;-9.10;1.00;;;;;;8227586;28;20298;-66
2024/01/09 15:56:22;;;;;;;156.80;51.37;;;-9.20;1.00;;;;;;8233096;28;20183;-66
2024/01/09 16:00:23;;;;;;;175.20;53.70;;;-9.20;1.00;;;;;;8251498;28;20215;-65
2024/01/09 16:04:26;;;;;;;153.63;51.43;;;-9.20;1.00;;;;;;8244665;28;20253;-65
2024/01/09 16:08:27;;;;;;;107.47;36.60;;;-9.30;1.00;;;;;;8235043;28;20195;-65
2024/01/09 16:12:29;;;;;;;64.03;26.43;;;-9.50;1.00;;;;;;8243024;28;20222;-66
2024/01/09 16:16:30;;;;;;;52.27;20.17;;;-9.60;1.00;;;;;;8231858;28;20254;-65
2024/01/09 16:20:32;;;;;;;34.90;17.73;;;-9.80;1.00;;;;;;8240754;28;20187;-66
2024/01/09 16:24:32;;;;;;;37.77;17.73;;;-9.90;1.00;;;;;;8247063;28;20187;-65
2024/01/09 16:28:34;;;;;;;42.23;17.83;;;-10.00;1.00;;;;;;8255002;28;20217;-66
2024/01/09 16:32:35;;;;;;;36.53;17.10;;;-10.10;1.00;;;;;;8232844;28;20210;-65
2024/01/09 16:36:36;;;;;;;51.43;22.77;;;-10.20;1.00;;;;;;8236152;28;20186;-63
2024/01/09 16:40:37;;;;;;;53.23;23.17;;;-10.30;1.00;;;;;;8228757;28;20304;-64
2024/01/09 16:44:38;;;;;;;69.70;31.67;;;-10.30;1.00;;;;;;8230622;28;20290;-65
2024/01/09 16:48:47;;;;;;;70.47;32.47;;;-10.40;1.00;;;;;;8239050;28;20241;-64
2024/01/09 16:52:51;;;;;;;63.90;28.70;;;-10.30;1.00;;;;;;8224383;28;20202;-65
2024/01/09 16:56:52;;;;;;;56.93;28.23;;;-10.40;1.00;;;;;;8226569;28;20288;-66
2024/01/09 17:00:52;;;;;;;59.57;28.50;;;-10.40;1.00;;;;;;8234648;28;20264;-67
2024/01/09 17:04:53;;;;;;;59.00;27.47;;;-10.40;1.00;;;;;;8259263;28;20194;-67
2024/01/09 17:08:54;;;;;;;61.30;26.43;;;-10.40;1.00;;;;;;8237106;28;20244;-66
2024/01/09 17:12:55;;;;;;;49.13;23.03;;;-10.40;1.00;;;;;;8241722;28;20273;-67
2024/01/09 17:16:56;;;;;;;63.57;30.17;;;-10.40;1.00;;;;;;8244749;28;20627;-65
2024/01/09 17:20:58;;;;;;;83.50;33.73;;;-10.40;1.00;;;;;;8242181;28;20219;-66
2024/01/09 17:24:59;;;;;;;65.30;29.67;;;-10.30;1.00;;;;;;8237518;28;20214;-66
2024/01/09 17:29:00;;;;;;;69.00;29.60;;;-10.20;1.00;;;;;;8236685;28;20198;-66
2024/01/09 17:33:01;;;;;;;67.53;29.10;;;-10.30;1.00;;;;;;8238822;28;20193;-66
2024/01/09 17:37:02;;;;;;;83.80;32.43;;;-10.50;1.00;;;;;;8238489;28;20245;-66
2024/01/09 17:41:03;;;;;;;71.70;29.93;;;-10.50;1.00;;;;;;8250858;28;20195;-66
2024/01/09 17:45:04;;;;;;;60.47;27.80;;;-10.60;1.00;;;;;;8249296;28;20200;-66
2024/01/09 17:49:06;;;;;;;50.10;21.97;;;-10.70;1.00;;;;;;8244537;28;20215;-67
2024/01/09 17:53:07;;;;;;;73.53;29.20;;;-10.70;1.00;;;;;;8233333;28;20195;-66
2024/01/09 17:57:08;;;;;;;74.53;32.60;;;-10.70;3.70;;;;;;8256577;28;20201;-66
2024/01/09 18:01:09;;;;;;;52.50;25.03;;;-10.70;3.90;;;;;;8250768;28;20222;-65
2024/01/09 18:05:11;;;;;;;70.17;31.60;;;-10.70;5.60;;;;;;8238924;28;20197;-66
2024/01/09 18:09:12;;;;;;;86.03;37.67;;;-10.70;13.70;;;;;;8237602;28;20222;-66
2024/01/09 18:13:19;;;;;;;64.10;30.57;;;-10.60;15.20;;;;;;8240679;28;20321;-66
2024/01/09 18:17:20;;;;;;;57.37;25.83;;;-10.50;14.80;;;;;;8234824;28;20193;-67
2024/01/09 18:21:26;;;;;;;56.50;23.77;;;-10.50;12.10;;;;;;8247648;28;20240;-66
2024/01/09 18:25:27;;;;;;;61.77;27.97;;;-10.60;10.90;;;;;;8267974;28;20194;-66
2024/01/09 18:29:28;;;;;;;54.07;24.97;;;-10.60;12.80;;;;;;8252354;28;20280;-65
2024/01/09 18:33:29;;;;;;;104.50;40.77;;;-10.60;12.50;;;;;;8268246;28;20243;-66
2024/01/09 18:37:30;;;;;;;106.87;44.13;;;-10.60;12.70;;;;;;8250382;28;20497;-65
2024/01/09 18:41:31;;;;;;;172.83;62.43;;;-10.50;11.90;;;;;;8260597;28;20444;-66
2024/01/09 18:45:32;;;;;;;151.77;54.87;;;-10.50;9.40;;;;;;8247841;28;20654;-66
2024/01/09 18:49:35;;;;;;;80.63;34.53;;;-10.50;5.90;;;;;;8248469;28;20208;-66
2024/01/09 18:53:36;;;;;;;71.30;29.67;;;-10.50;1.60;;;;;;8248192;28;20225;-66
2024/01/09 18:57:36;;;;;;;52.03;24.63;;;-10.60;1.00;;;;;;8239371;28;20623;-65
2024/01/09 19:01:42;;;;;;;53.73;24.00;;;-10.70;1.00;;;;;;8239553;28;20219;-67
2024/01/09 19:05:45;;;;;;;61.83;25.53;;;-10.80;1.00;;;;;;8250817;28;20197;-65
2024/01/09 19:09:48;;;;;;;89.83;35.90;;;-10.80;9.50;;;;;;8266266;28;20214;-65
2024/01/09 19:13:49;;;;;;;90.37;36.93;;;-10.80;8.40;;;;;;8253576;28;20184;-65
2024/01/09 19:17:51;;;;;;;56.33;24.13;;;-10.80;7.70;;;;;;8249125;28;20195;-65
2024/01/09 19:21:53;;;;;;;59.17;23.40;;;-10.80;8.80;;;;;;8252700;28;20197;-66
2024/01/09 19:25:57;;;;;;;51.70;23.77;;;-10.90;10.10;;;;;;8244079;28;20214;-66
2024/01/09 19:30:00;;;;;;;56.37;22.43;;;-10.90;13.10;;;;;;8253362;28;20270;-65
2024/01/09 19:34:01;;;;;;;310.07;135.80;;;-10.90;15.80;;;;;;8265944;28;20210;-66
2024/01/09 19:38:02;;;;;;;140.70;52.40;;;-10.90;12.70;;;;;;8247000;28;20322;-65
2024/01/09 19:42:03;;;;;;;174.03;52.80;;;-10.90;10.40;;;;;;8265091;28;20208;-66
2024/01/09 19:46:05;;;;;;;166.87;47.80;;;-10.90;8.20;;;;;;8248606;28;20196;-65
2024/01/09 19:50:06;;;;;;;148.63;45.13;;;-10.80;3.50;;;;;;8245583;28;20224;-66
2024/01/09 19:54:07;;;;;;;189.67;56.03;;;-10.90;1.00;;;;;;8264019;28;20285;-65
2024/01/09 19:58:08;;;;;;;533.20;192.37;;;-10.90;1.00;;;;;;8247970;28;20212;-65
2024/01/09 20:02:09;;;;;;;370.73;164.97;;;-11.00;1.00;;;;;;8236630;28;20248;-67
2024/01/09 20:06:26;;;;;;;170.00;61.40;;;-10.90;1.00;;;;;;8226714;28;20187;-67
2024/01/09 20:10:27;;;;;;;229.67;70.17;;;-11.00;1.00;;;;;;8219083;28;20213;-67
2024/01/09 20:14:28;;;;;;;127.77;46.57;;;-11.00;1.00;;;;;;8230040;28;20631;-66
2024/01/09 20:18:29;;;;;;;131.43;45.83;;;-11.00;1.00;;;;;;8218361;28;20215;-66
2024/01/09 20:22:30;;;;;;;159.20;49.23;;;-11.00;1.00;;;;;;8222059;28;20184;-66
2024/01/09 20:26:37;;;;;;;119.57;43.27;;;-11.10;1.00;;;;;;8223537;28;20192;-66